createdAt,value
2022-10-07T06:35:24.342Z,99.90
2022-10-07T06:40:20.637Z,99.90
2022-10-07T06:54:52.877Z,99.90
2022-10-07T07:13:15.378Z,99.90
2022-10-07T07:30:59.501Z,99.90
2022-10-07T07:47:17.304Z,99.90
2022-10-07T08:01:45.611Z,99.90
2022-10-07T08:15:48.047Z,99.90
2022-10-07T08:20:41.743Z,99.90
2022-10-07T08:34:15.664Z,99.90
2022-10-07T08:39:09.271Z,99.90
2022-10-07T08:44:17.984Z,99.90
2022-10-07T08:49:17.161Z,99.90
2022-10-07T08:54:14.152Z,99.90
2022-10-07T08:59:21.870Z,99.90
2022-10-07T09:04:29.122Z,99.90
2022-10-07T09:09:27.714Z,99.90
2022-10-07T09:14:29.151Z,99.90
2022-10-07T09:19:31.585Z,99.90
2022-10-07T09:24:32.189Z,99.90
2022-10-07T09:29:28.186Z,99.90
2022-10-07T09:34:26.234Z,99.90
2022-10-07T09:39:24.449Z,99.90
2022-10-07T09:44:27.710Z,99.90
2022-10-07T09:54:45.882Z,99.90
2022-10-07T09:59:40.438Z,99.90
2022-10-07T10:04:37.909Z,99.90
2022-10-07T10:09:32.110Z,99.90
2022-10-07T10:14:38.937Z,99.90
2022-10-07T10:19:36.528Z,99.90
2022-10-07T10:24:49.528Z,99.90
2022-10-07T10:29:53.740Z,99.90
2022-10-07T10:34:56.237Z,99.90
2022-10-07T10:40:07.579Z,99.90
2022-10-07T10:45:18.469Z,99.90
2022-10-07T10:50:19.656Z,99.90
2022-10-07T10:55:29.017Z,99.90
2022-10-07T11:00:25.130Z,99.90
2022-10-07T11:05:23.702Z,99.90
2022-10-07T11:10:22.334Z,99.90
2022-10-07T11:15:21.453Z,99.90
2022-10-07T11:20:22.112Z,99.90
2022-10-07T11:25:26.082Z,99.90
2022-10-07T11:30:22.404Z,99.90
2022-10-07T11:35:27.717Z,99.90
2022-10-07T11:40:29.047Z,99.90
2022-10-07T11:45:28.297Z,99.90
2022-10-07T11:50:28.102Z,99.90
2022-10-07T11:55:26.407Z,99.90
2022-10-07T12:00:28.256Z,99.90
2022-10-07T12:05:59.619Z,99.90
2022-10-07T12:10:56.186Z,99.90
2022-10-07T12:15:51.063Z,99.90
2022-10-07T12:20:59.133Z,99.90
2022-10-07T12:25:56.282Z,99.90
2022-10-07T12:30:52.951Z,99.90
2022-10-07T12:35:54.229Z,99.90
2022-10-07T12:40:56.167Z,99.90
2022-10-07T12:45:53.038Z,99.50
2022-10-07T12:50:49.731Z,97.80
2022-10-07T12:55:50.343Z,96.90
2022-10-07T13:00:57.353Z,96.00
2022-10-07T13:06:26.351Z,94.60
2022-10-07T13:11:47.551Z,93.20
2022-10-07T13:16:50.070Z,92.10
2022-10-07T13:21:48.030Z,90.60
2022-10-07T13:26:45.686Z,89.40
2022-10-07T13:31:39.486Z,86.50
2022-10-07T13:36:43.886Z,84.80
2022-10-07T13:41:39.302Z,82.20
2022-10-07T13:46:36.354Z,80.10
2022-10-07T13:51:35.507Z,78.60
2022-10-07T13:56:33.893Z,78.20
2022-10-07T14:01:29.978Z,75.30
2022-10-07T14:06:39.103Z,74.10
2022-10-07T14:11:32.654Z,73.00
2022-10-07T14:16:26.485Z,73.30
2022-10-07T14:21:20.686Z,73.00
2022-10-07T14:26:17.877Z,71.70
2022-10-07T14:31:36.235Z,72.20
2022-10-07T14:36:29.821Z,72.00
2022-10-07T14:41:27.452Z,70.50
2022-10-07T14:46:23.019Z,70.40
2022-10-07T14:51:19.085Z,70.20
2022-10-07T14:56:15.739Z,69.70
2022-10-07T15:01:10.748Z,70.60
2022-10-07T15:06:04.294Z,71.50
2022-10-07T15:10:57.890Z,74.40
2022-10-07T15:15:51.894Z,80.00
2022-10-07T15:20:47.271Z,81.80
2022-10-07T15:25:42.877Z,84.30
2022-10-07T15:30:39.358Z,90.00
2022-10-07T15:35:36.011Z,92.30
2022-10-07T15:40:31.861Z,94.00
2022-10-07T15:45:27.081Z,95.20
2022-10-07T15:50:21.010Z,96.00
2022-10-07T15:55:16.449Z,97.00
2022-10-07T16:00:13.807Z,98.10
2022-10-07T16:05:09.807Z,99.20
2022-10-07T16:10:03.723Z,99.90
2022-10-07T16:14:57.597Z,99.90
2022-10-07T16:19:53.125Z,99.90
2022-10-07T16:24:46.878Z,99.90
2022-10-07T16:29:57.843Z,99.90
2022-10-07T16:34:53.465Z,99.90
2022-10-07T16:39:47.947Z,99.90
2022-10-07T16:44:41.653Z,99.90
2022-10-07T16:49:36.601Z,99.90
2022-10-07T16:54:32.876Z,99.90
2022-10-07T16:59:27.574Z,99.90
2022-10-07T17:04:21.410Z,99.90
2022-10-07T17:09:17.577Z,99.90
2022-10-07T17:14:16.819Z,99.90
2022-10-07T17:19:16.059Z,99.90
2022-10-07T17:24:13.305Z,99.90
2022-10-07T17:29:12.397Z,99.90
2022-10-07T17:34:08.899Z,99.90
2022-10-07T17:39:03.126Z,99.90
2022-10-07T17:43:59.432Z,99.90
2022-10-07T17:48:55.196Z,99.90
2022-10-07T17:53:51.354Z,99.90
2022-10-07T17:58:47.590Z,99.90
2022-10-07T18:03:44.237Z,99.90
2022-10-07T18:08:43.222Z,99.90
2022-10-07T18:13:55.921Z,99.90
2022-10-07T18:18:54.488Z,99.90
2022-10-07T18:23:48.096Z,99.90
2022-10-07T18:28:44.061Z,99.90
2022-10-07T18:33:39.377Z,99.90
2022-10-07T18:38:33.954Z,99.90
2022-10-07T18:43:28.189Z,99.90
2022-10-07T18:48:26.809Z,99.90
2022-10-07T18:53:23.992Z,99.90
2022-10-07T18:58:19.508Z,99.90
2022-10-07T19:03:13.809Z,99.90
2022-10-07T19:08:09.142Z,99.90
2022-10-07T19:13:21.374Z,99.90
2022-10-07T19:18:15.799Z,99.90
2022-10-07T19:23:11.929Z,99.90
2022-10-07T19:28:06.332Z,99.90
